sensor_id;sensor_type;location;lat;lon;timestamp;temperature;humidity
11922;DHT22;6021;51.182;3.160;2024-03-22T00:00:51;11.10;15.20
11922;DHT22;6021;51.182;3.160;2024-03-22T00:03:20;11.00;22.60
11922;DHT22;6021;51.182;3.160;2024-03-22T00:05:48;10.90;22.40
11922;DHT22;6021;51.182;3.160;2024-03-22T00:08:16;11.10;25.50
11922;DHT22;6021;51.182;3.160;2024-03-22T00:10:45;11.20;23.00
11922;DHT22;6021;51.182;3.160;2024-03-22T00:13:13;11.00;18.70
11922;DHT22;6021;51.182;3.160;2024-03-22T00:15:41;11.20;20.00
11922;DHT22;6021;51.182;3.160;2024-03-22T00:18:11;11.20;24.50
11922;DHT22;6021;51.182;3.160;2024-03-22T00:20:40;11.10;21.40
11922;DHT22;6021;51.182;3.160;2024-03-22T00:23:08;11.00;20.00
11922;DHT22;6021;51.182;3.160;2024-03-22T00:25:36;11.00;19.10
11922;DHT22;6021;51.182;3.160;2024-03-22T00:28:05;11.00;26.80
11922;DHT22;6021;51.182;3.160;2024-03-22T00:30:33;11.00;25.60
11922;DHT22;6021;51.182;3.160;2024-03-22T00:33:01;10.90;27.60
11922;DHT22;6021;51.182;3.160;2024-03-22T00:35:30;10.90;30.80
11922;DHT22;6021;51.182;3.160;2024-03-22T00:37:59;10.90;34.30
11922;DHT22;6021;51.182;3.160;2024-03-22T00:40:27;10.80;41.40
11922;DHT22;6021;51.182;3.160;2024-03-22T00:42:56;10.70;44.50
11922;DHT22;6021;51.182;3.160;2024-03-22T00:45:24;10.60;53.30
11922;DHT22;6021;51.182;3.160;2024-03-22T00:47:52;10.80;53.60
11922;DHT22;6021;51.182;3.160;2024-03-22T00:50:21;10.70;55.80
11922;DHT22;6021;51.182;3.160;2024-03-22T00:52:50;10.80;68.40
11922;DHT22;6021;51.182;3.160;2024-03-22T00:55:19;10.70;62.20
11922;DHT22;6021;51.182;3.160;2024-03-22T00:57:48;10.70;62.70
11922;DHT22;6021;51.182;3.160;2024-03-22T01:00:17;10.80;69.10
11922;DHT22;6021;51.182;3.160;2024-03-22T01:02:45;10.90;66.50
11922;DHT22;6021;51.182;3.160;2024-03-22T01:05:15;10.60;67.30
11922;DHT22;6021;51.182;3.160;2024-03-22T01:07:43;10.60;70.70
11922;DHT22;6021;51.182;3.160;2024-03-22T01:10:12;10.70;76.10
11922;DHT22;6021;51.182;3.160;2024-03-22T01:12:40;10.70;82.20
11922;DHT22;6021;51.182;3.160;2024-03-22T01:15:09;10.60;79.60
11922;DHT22;6021;51.182;3.160;2024-03-22T01:17:38;10.60;81.10
11922;DHT22;6021;51.182;3.160;2024-03-22T01:20:06;10.60;88.80
11922;DHT22;6021;51.182;3.160;2024-03-22T01:22:34;10.70;86.60
11922;DHT22;6021;51.182;3.160;2024-03-22T01:25:04;10.60;87.60
11922;DHT22;6021;51.182;3.160;2024-03-22T01:27:33;10.60;90.20
11922;DHT22;6021;51.182;3.160;2024-03-22T01:30:01;10.60;91.60
11922;DHT22;6021;51.182;3.160;2024-03-22T01:32:30;10.60;90.70
11922;DHT22;6021;51.182;3.160;2024-03-22T01:34:58;10.60;90.60
11922;DHT22;6021;51.182;3.160;2024-03-22T01:37:26;10.60;91.80
11922;DHT22;6021;51.182;3.160;2024-03-22T01:39:55;10.60;91.20
11922;DHT22;6021;51.182;3.160;2024-03-22T01:42:23;10.70;92.60
11922;DHT22;6021;51.182;3.160;2024-03-22T01:44:52;10.70;92.90
11922;DHT22;6021;51.182;3.160;2024-03-22T01:47:20;10.60;90.00
11922;DHT22;6021;51.182;3.160;2024-03-22T01:49:50;10.80;88.80
11922;DHT22;6021;51.182;3.160;2024-03-22T01:52:19;10.60;82.80
11922;DHT22;6021;51.182;3.160;2024-03-22T01:54:49;10.60;88.90
11922;DHT22;6021;51.182;3.160;2024-03-22T01:57:17;10.90;88.60
11922;DHT22;6021;51.182;3.160;2024-03-22T01:59:46;10.70;85.20
11922;DHT22;6021;51.182;3.160;2024-03-22T02:02:16;10.70;77.40
11922;DHT22;6021;51.182;3.160;2024-03-22T02:04:44;10.70;75.60
11922;DHT22;6021;51.182;3.160;2024-03-22T02:07:13;10.70;74.30
11922;DHT22;6021;51.182;3.160;2024-03-22T02:09:41;10.90;71.20
11922;DHT22;6021;51.182;3.160;2024-03-22T02:12:10;10.60;76.00
11922;DHT22;6021;51.182;3.160;2024-03-22T02:14:39;10.60;82.40
11922;DHT22;6021;51.182;3.160;2024-03-22T02:17:07;10.60;87.90
11922;DHT22;6021;51.182;3.160;2024-03-22T02:19:35;10.60;85.70
11922;DHT22;6021;51.182;3.160;2024-03-22T02:22:04;10.70;91.70
11922;DHT22;6021;51.182;3.160;2024-03-22T02:24:32;10.60;84.40
11922;DHT22;6021;51.182;3.160;2024-03-22T02:27:00;10.70;84.80
11922;DHT22;6021;51.182;3.160;2024-03-22T02:29:29;10.60;78.50
11922;DHT22;6021;51.182;3.160;2024-03-22T02:31:57;10.70;69.90
11922;DHT22;6021;51.182;3.160;2024-03-22T02:34:25;10.70;63.80
11922;DHT22;6021;51.182;3.160;2024-03-22T02:36:54;10.60;64.80
11922;DHT22;6021;51.182;3.160;2024-03-22T02:39:22;10.80;70.70
11922;DHT22;6021;51.182;3.160;2024-03-22T02:41:52;10.60;68.80
11922;DHT22;6021;51.182;3.160;2024-03-22T02:44:21;10.70;72.20
11922;DHT22;6021;51.182;3.160;2024-03-22T02:46:49;10.60;76.10
11922;DHT22;6021;51.182;3.160;2024-03-22T02:49:17;10.70;75.90
11922;DHT22;6021;51.182;3.160;2024-03-22T02:51:46;10.70;70.80
11922;DHT22;6021;51.182;3.160;2024-03-22T02:54:14;10.60;66.90
11922;DHT22;6021;51.182;3.160;2024-03-22T02:56:43;10.90;66.50
11922;DHT22;6021;51.182;3.160;2024-03-22T02:59:11;10.70;63.20
11922;DHT22;6021;51.182;3.160;2024-03-22T03:01:39;10.90;62.00
11922;DHT22;6021;51.182;3.160;2024-03-22T03:04:08;10.90;63.40
11922;DHT22;6021;51.182;3.160;2024-03-22T03:06:36;10.70;67.70
11922;DHT22;6021;51.182;3.160;2024-03-22T03:09:04;10.90;69.90
11922;DHT22;6021;51.182;3.160;2024-03-22T03:11:35;10.70;65.60
11922;DHT22;6021;51.182;3.160;2024-03-22T03:14:03;10.70;62.40
11922;DHT22;6021;51.182;3.160;2024-03-22T03:16:31;10.70;68.50
11922;DHT22;6021;51.182;3.160;2024-03-22T03:19:00;10.70;72.80
11922;DHT22;6021;51.182;3.160;2024-03-22T03:21:28;10.80;77.00
11922;DHT22;6021;51.182;3.160;2024-03-22T03:23:56;10.80;70.10
11922;DHT22;6021;51.182;3.160;2024-03-22T03:26:30;10.90;67.10
11922;DHT22;6021;51.182;3.160;2024-03-22T03:28:55;10.60;56.30
11922;DHT22;6021;51.182;3.160;2024-03-22T03:31:23;10.70;59.70
11922;DHT22;6021;51.182;3.160;2024-03-22T03:33:51;10.70;62.20
11922;DHT22;6021;51.182;3.160;2024-03-22T03:36:20;10.80;57.60
11922;DHT22;6021;51.182;3.160;2024-03-22T03:38:48;10.70;61.20
11922;DHT22;6021;51.182;3.160;2024-03-22T03:41:16;10.80;65.50
11922;DHT22;6021;51.182;3.160;2024-03-22T03:43:45;10.80;61.90
11922;DHT22;6021;51.182;3.160;2024-03-22T03:46:13;10.80;57.80
11922;DHT22;6021;51.182;3.160;2024-03-22T03:48:42;10.90;60.40
11922;DHT22;6021;51.182;3.160;2024-03-22T03:51:10;10.90;61.60
11922;DHT22;6021;51.182;3.160;2024-03-22T03:53:38;10.70;60.60
11922;DHT22;6021;51.182;3.160;2024-03-22T03:56:06;10.80;58.10
11922;DHT22;6021;51.182;3.160;2024-03-22T03:58:35;10.80;61.60
11922;DHT22;6021;51.182;3.160;2024-03-22T04:01:07;10.70;60.70
11922;DHT22;6021;51.182;3.160;2024-03-22T04:03:36;10.80;63.80
11922;DHT22;6021;51.182;3.160;2024-03-22T04:06:04;10.80;66.10
11922;DHT22;6021;51.182;3.160;2024-03-22T04:08:32;10.60;69.80
11922;DHT22;6021;51.182;3.160;2024-03-22T04:11:01;10.90;77.00
11922;DHT22;6021;51.182;3.160;2024-03-22T04:13:30;10.80;80.80
11922;DHT22;6021;51.182;3.160;2024-03-22T04:15:59;10.80;80.80
11922;DHT22;6021;51.182;3.160;2024-03-22T04:18:27;10.70;77.10
11922;DHT22;6021;51.182;3.160;2024-03-22T04:20:57;10.70;79.00
11922;DHT22;6021;51.182;3.160;2024-03-22T04:23:26;10.90;82.70
11922;DHT22;6021;51.182;3.160;2024-03-22T04:25:56;10.70;86.30
11922;DHT22;6021;51.182;3.160;2024-03-22T04:28:25;10.80;88.30
11922;DHT22;6021;51.182;3.160;2024-03-22T04:31:08;11.10;84.70
11922;DHT22;6021;51.182;3.160;2024-03-22T04:33:28;10.80;78.30
11922;DHT22;6021;51.182;3.160;2024-03-22T04:35:57;11.20;79.50
11922;DHT22;6021;51.182;3.160;2024-03-22T04:38:26;10.90;75.80
11922;DHT22;6021;51.182;3.160;2024-03-22T04:40:55;10.80;70.40
11922;DHT22;6021;51.182;3.160;2024-03-22T04:43:24;10.80;67.90
11922;DHT22;6021;51.182;3.160;2024-03-22T04:45:52;10.70;75.50
11922;DHT22;6021;51.182;3.160;2024-03-22T04:48:22;10.80;82.30
11922;DHT22;6021;51.182;3.160;2024-03-22T04:50:52;10.80;78.20
11922;DHT22;6021;51.182;3.160;2024-03-22T04:53:21;10.80;80.00
11922;DHT22;6021;51.182;3.160;2024-03-22T04:55:50;10.70;80.00
11922;DHT22;6021;51.182;3.160;2024-03-22T04:58:24;10.60;81.20
11922;DHT22;6021;51.182;3.160;2024-03-22T05:00:49;10.70;85.60
11922;DHT22;6021;51.182;3.160;2024-03-22T05:03:18;10.60;85.40
11922;DHT22;6021;51.182;3.160;2024-03-22T05:05:46;10.60;90.00
11922;DHT22;6021;51.182;3.160;2024-03-22T05:08:15;10.70;93.20
11922;DHT22;6021;51.182;3.160;2024-03-22T05:10:43;10.60;91.00
11922;DHT22;6021;51.182;3.160;2024-03-22T05:13:11;10.90;87.70
11922;DHT22;6021;51.182;3.160;2024-03-22T05:15:40;10.70;85.20
11922;DHT22;6021;51.182;3.160;2024-03-22T05:18:08;10.70;83.30
11922;DHT22;6021;51.182;3.160;2024-03-22T05:20:37;10.60;76.50
11922;DHT22;6021;51.182;3.160;2024-03-22T05:23:06;10.80;69.70
11922;DHT22;6021;51.182;3.160;2024-03-22T05:25:34;10.70;67.10
11922;DHT22;6021;51.182;3.160;2024-03-22T05:28:03;10.70;67.10
11922;DHT22;6021;51.182;3.160;2024-03-22T05:30:31;10.80;68.40
11922;DHT22;6021;51.182;3.160;2024-03-22T05:33:00;10.80;64.80
11922;DHT22;6021;51.182;3.160;2024-03-22T05:35:28;10.90;67.90
11922;DHT22;6021;51.182;3.160;2024-03-22T05:37:57;10.80;65.80
11922;DHT22;6021;51.182;3.160;2024-03-22T05:40:25;10.60;60.60
11922;DHT22;6021;51.182;3.160;2024-03-22T05:42:53;10.70;61.00
11922;DHT22;6021;51.182;3.160;2024-03-22T05:45:22;10.70;68.00
11922;DHT22;6021;51.182;3.160;2024-03-22T05:47:50;10.70;65.60
11922;DHT22;6021;51.182;3.160;2024-03-22T05:50:19;10.70;62.90
11922;DHT22;6021;51.182;3.160;2024-03-22T05:52:48;10.90;67.70
11922;DHT22;6021;51.182;3.160;2024-03-22T05:55:16;10.60;67.60
11922;DHT22;6021;51.182;3.160;2024-03-22T05:57:45;10.70;74.60
11922;DHT22;6021;51.182;3.160;2024-03-22T06:00:13;10.70;63.00
11922;DHT22;6021;51.182;3.160;2024-03-22T06:02:42;10.60;68.80
11922;DHT22;6021;51.182;3.160;2024-03-22T06:05:10;10.60;75.40
11922;DHT22;6021;51.182;3.160;2024-03-22T06:07:39;10.60;71.50
11922;DHT22;6021;51.182;3.160;2024-03-22T06:10:09;10.60;67.70
11922;DHT22;6021;51.182;3.160;2024-03-22T06:12:38;10.70;70.60
11922;DHT22;6021;51.182;3.160;2024-03-22T06:15:06;10.60;69.40
11922;DHT22;6021;51.182;3.160;2024-03-22T06:17:35;10.60;69.20
11922;DHT22;6021;51.182;3.160;2024-03-22T06:20:04;10.60;69.80
11922;DHT22;6021;51.182;3.160;2024-03-22T06:22:37;10.60;60.20
11922;DHT22;6021;51.182;3.160;2024-03-22T06:25:11;10.70;54.00
11922;DHT22;6021;51.182;3.160;2024-03-22T06:27:35;10.70;51.50
11922;DHT22;6021;51.182;3.160;2024-03-22T06:30:04;10.60;51.80
11922;DHT22;6021;51.182;3.160;2024-03-22T06:32:32;10.60;46.40
11922;DHT22;6021;51.182;3.160;2024-03-22T06:35:01;10.80;40.00
11922;DHT22;6021;51.182;3.160;2024-03-22T06:37:31;10.80;42.00
11922;DHT22;6021;51.182;3.160;2024-03-22T06:39:59;10.80;42.00
11922;DHT22;6021;51.182;3.160;2024-03-22T06:42:28;10.90;33.00
11922;DHT22;6021;51.182;3.160;2024-03-22T06:44:56;10.90;25.30
11922;DHT22;6021;51.182;3.160;2024-03-22T06:47:25;10.90;14.10
11922;DHT22;6021;51.182;3.160;2024-03-22T06:49:53;10.90;6.00
11922;DHT22;6021;51.182;3.160;2024-03-22T06:52:21;10.80;8.00
11922;DHT22;6021;51.182;3.160;2024-03-22T06:54:50;11.10;7.20
11922;DHT22;6021;51.182;3.160;2024-03-22T06:57:19;10.90;4.50
11922;DHT22;6021;51.182;3.160;2024-03-22T06:59:48;10.90;1.00
11922;DHT22;6021;51.182;3.160;2024-03-22T07:02:16;11.00;1.00
11922;DHT22;6021;51.182;3.160;2024-03-22T07:04:46;11.00;1.00
11922;DHT22;6021;51.182;3.160;2024-03-22T07:07:18;11.20;1.00
11922;DHT22;6021;51.182;3.160;2024-03-22T07:09:44;11.20;1.00
11922;DHT22;6021;51.182;3.160;2024-03-22T07:12:13;11.30;1.00
11922;DHT22;6021;51.182;3.160;2024-03-22T07:14:42;11.50;1.00
11922;DHT22;6021;51.182;3.160;2024-03-22T07:17:10;11.60;1.00
11922;DHT22;6021;51.182;3.160;2024-03-22T07:19:38;11.80;1.00
11922;DHT22;6021;51.182;3.160;2024-03-22T07:22:07;11.90;1.00
11922;DHT22;6021;51.182;3.160;2024-03-22T07:24:35;11.60;1.00
11922;DHT22;6021;51.182;3.160;2024-03-22T07:27:04;11.40;1.00
11922;DHT22;6021;51.182;3.160;2024-03-22T07:29:34;11.30;1.00
11922;DHT22;6021;51.182;3.160;2024-03-22T07:32:07;11.30;1.00
11922;DHT22;6021;51.182;3.160;2024-03-22T07:34:35;11.30;1.00
11922;DHT22;6021;51.182;3.160;2024-03-22T07:37:04;11.60;1.00
11922;DHT22;6021;51.182;3.160;2024-03-22T07:39:32;11.50;1.00
11922;DHT22;6021;51.182;3.160;2024-03-22T07:42:01;11.30;1.00
11922;DHT22;6021;51.182;3.160;2024-03-22T07:44:30;11.50;1.00
11922;DHT22;6021;51.182;3.160;2024-03-22T07:47:01;11.60;1.00
11922;DHT22;6021;51.182;3.160;2024-03-22T07:49:29;11.50;1.00
11922;DHT22;6021;51.182;3.160;2024-03-22T07:51:58;11.70;1.00
11922;DHT22;6021;51.182;3.160;2024-03-22T07:54:27;11.70;1.00
11922;DHT22;6021;51.182;3.160;2024-03-22T07:56:55;11.60;1.00
11922;DHT22;6021;51.182;3.160;2024-03-22T07:59:24;11.70;1.00
11922;DHT22;6021;51.182;3.160;2024-03-22T08:01:52;11.60;1.00
11922;DHT22;6021;51.182;3.160;2024-03-22T08:04:21;11.90;1.00
11922;DHT22;6021;51.182;3.160;2024-03-22T08:06:51;11.90;1.00
11922;DHT22;6021;51.182;3.160;2024-03-22T08:09:21;11.60;1.00
11922;DHT22;6021;51.182;3.160;2024-03-22T08:11:49;11.40;1.00
11922;DHT22;6021;51.182;3.160;2024-03-22T08:14:18;11.30;1.00
11922;DHT22;6021;51.182;3.160;2024-03-22T08:16:46;11.40;1.00
11922;DHT22;6021;51.182;3.160;2024-03-22T08:19:15;11.40;1.00
11922;DHT22;6021;51.182;3.160;2024-03-22T08:21:43;11.60;1.00
11922;DHT22;6021;51.182;3.160;2024-03-22T08:24:12;11.90;1.00
11922;DHT22;6021;51.182;3.160;2024-03-22T08:26:40;11.80;1.00
11922;DHT22;6021;51.182;3.160;2024-03-22T08:29:10;11.90;1.00
11922;DHT22;6021;51.182;3.160;2024-03-22T08:31:39;11.80;1.00
11922;DHT22;6021;51.182;3.160;2024-03-22T08:34:08;11.80;1.00
11922;DHT22;6021;51.182;3.160;2024-03-22T08:36:52;11.80;1.00
11922;DHT22;6021;51.182;3.160;2024-03-22T08:39:06;11.90;1.00
11922;DHT22;6021;51.182;3.160;2024-03-22T08:41:40;11.60;1.00
11922;DHT22;6021;51.182;3.160;2024-03-22T08:44:08;11.80;1.00
11922;DHT22;6021;51.182;3.160;2024-03-22T08:47:05;11.60;1.00
11922;DHT22;6021;51.182;3.160;2024-03-22T08:49:47;11.80;1.00
11922;DHT22;6021;51.182;3.160;2024-03-22T08:52:16;11.80;1.00
11922;DHT22;6021;51.182;3.160;2024-03-22T08:54:44;12.10;1.00
11922;DHT22;6021;51.182;3.160;2024-03-22T08:57:13;12.20;1.00
11922;DHT22;6021;51.182;3.160;2024-03-22T08:59:41;11.90;1.00
11922;DHT22;6021;51.182;3.160;2024-03-22T09:02:09;12.30;1.00
11922;DHT22;6021;51.182;3.160;2024-03-22T09:04:44;12.20;1.00
11922;DHT22;6021;51.182;3.160;2024-03-22T09:07:09;12.00;1.00
11922;DHT22;6021;51.182;3.160;2024-03-22T09:09:39;12.00;1.00
11922;DHT22;6021;51.182;3.160;2024-03-22T09:12:22;12.00;1.00
11922;DHT22;6021;51.182;3.160;2024-03-22T09:14:50;12.00;99.90
11922;DHT22;6021;51.182;3.160;2024-03-22T09:17:19;12.00;99.90
11922;DHT22;6021;51.182;3.160;2024-03-22T09:19:47;12.10;1.00
11922;DHT22;6021;51.182;3.160;2024-03-22T09:22:16;12.00;1.00
11922;DHT22;6021;51.182;3.160;2024-03-22T09:24:44;12.20;1.00
11922;DHT22;6021;51.182;3.160;2024-03-22T09:27:13;12.00;1.00
11922;DHT22;6021;51.182;3.160;2024-03-22T09:29:41;12.10;1.00
11922;DHT22;6021;51.182;3.160;2024-03-22T09:32:11;12.00;99.90
11922;DHT22;6021;51.182;3.160;2024-03-22T09:34:39;12.30;1.00
11922;DHT22;6021;51.182;3.160;2024-03-22T09:37:07;12.00;1.00
11922;DHT22;6021;51.182;3.160;2024-03-22T09:39:36;12.00;1.00
11922;DHT22;6021;51.182;3.160;2024-03-22T09:42:06;11.90;1.00
11922;DHT22;6021;51.182;3.160;2024-03-22T09:44:35;11.90;1.00
11922;DHT22;6021;51.182;3.160;2024-03-22T09:47:14;12.00;1.00
11922;DHT22;6021;51.182;3.160;2024-03-22T09:49:43;12.20;1.00
11922;DHT22;6021;51.182;3.160;2024-03-22T09:52:14;12.00;1.00
11922;DHT22;6021;51.182;3.160;2024-03-22T09:54:45;12.10;1.00
11922;DHT22;6021;51.182;3.160;2024-03-22T09:57:16;12.00;1.00
11922;DHT22;6021;51.182;3.160;2024-03-22T09:59:47;12.00;1.00
11922;DHT22;6021;51.182;3.160;2024-03-22T10:02:17;12.00;1.00
11922;DHT22;6021;51.182;3.160;2024-03-22T10:04:46;12.10;1.00
11922;DHT22;6021;51.182;3.160;2024-03-22T10:07:14;11.70;1.00
11922;DHT22;6021;51.182;3.160;2024-03-22T10:09:43;11.90;1.00
11922;DHT22;6021;51.182;3.160;2024-03-22T10:12:11;11.60;1.00
11922;DHT22;6021;51.182;3.160;2024-03-22T10:14:44;12.00;1.00
11922;DHT22;6021;51.182;3.160;2024-03-22T10:17:14;11.90;1.00
11922;DHT22;6021;51.182;3.160;2024-03-22T10:19:42;11.90;1.00
11922;DHT22;6021;51.182;3.160;2024-03-22T10:22:11;11.90;1.00
11922;DHT22;6021;51.182;3.160;2024-03-22T10:24:39;11.90;1.00
11922;DHT22;6021;51.182;3.160;2024-03-22T10:27:09;12.00;1.00
11922;DHT22;6021;51.182;3.160;2024-03-22T10:29:39;11.70;1.00
11922;DHT22;6021;51.182;3.160;2024-03-22T10:32:09;11.90;1.00
11922;DHT22;6021;51.182;3.160;2024-03-22T10:34:39;12.00;1.00
11922;DHT22;6021;51.182;3.160;2024-03-22T10:37:10;11.70;1.00
11922;DHT22;6021;51.182;3.160;2024-03-22T10:39:40;12.00;1.00
11922;DHT22;6021;51.182;3.160;2024-03-22T10:42:11;12.00;10.00
11922;DHT22;6021;51.182;3.160;2024-03-22T10:44:40;11.90;17.50
11922;DHT22;6021;51.182;3.160;2024-03-22T10:47:10;11.90;20.90
11922;DHT22;6021;51.182;3.160;2024-03-22T10:49:41;11.60;28.50
11922;DHT22;6021;51.182;3.160;2024-03-22T10:52:11;11.70;36.30
11922;DHT22;6021;51.182;3.160;2024-03-22T10:54:43;11.70;42.90
11922;DHT22;6021;51.182;3.160;2024-03-22T10:57:14;11.30;48.40
11922;DHT22;6021;51.182;3.160;2024-03-22T10:59:43;11.50;56.60
11922;DHT22;6021;51.182;3.160;2024-03-22T11:02:11;11.60;74.20
11922;DHT22;6021;51.182;3.160;2024-03-22T11:04:40;11.40;70.70
11922;DHT22;6021;51.182;3.160;2024-03-22T11:07:09;11.30;80.90
11922;DHT22;6021;51.182;3.160;2024-03-22T11:09:39;11.50;90.20
11922;DHT22;6021;51.182;3.160;2024-03-22T11:12:08;11.40;86.50
11922;DHT22;6021;51.182;3.160;2024-03-22T11:14:37;11.40;90.70
11922;DHT22;6021;51.182;3.160;2024-03-22T11:17:05;11.60;98.10
11922;DHT22;6021;51.182;3.160;2024-03-22T11:19:34;11.50;99.90
11922;DHT22;6021;51.182;3.160;2024-03-22T11:22:10;11.40;99.90
11922;DHT22;6021;51.182;3.160;2024-03-22T11:24:40;11.80;99.90
11922;DHT22;6021;51.182;3.160;2024-03-22T11:27:10;11.60;99.90
11922;DHT22;6021;51.182;3.160;2024-03-22T11:29:39;11.80;99.90
11922;DHT22;6021;51.182;3.160;2024-03-22T11:32:09;11.80;99.90
11922;DHT22;6021;51.182;3.160;2024-03-22T11:34:37;11.70;99.90
11922;DHT22;6021;51.182;3.160;2024-03-22T11:37:06;11.70;99.90
11922;DHT22;6021;51.182;3.160;2024-03-22T11:39:39;11.60;99.90
11922;DHT22;6021;51.182;3.160;2024-03-22T11:42:08;11.50;99.90
11922;DHT22;6021;51.182;3.160;2024-03-22T11:44:39;11.50;99.90
11922;DHT22;6021;51.182;3.160;2024-03-22T11:47:07;11.60;99.90
11922;DHT22;6021;51.182;3.160;2024-03-22T11:49:36;11.60;99.90
11922;DHT22;6021;51.182;3.160;2024-03-22T11:52:05;11.30;99.90
11922;DHT22;6021;51.182;3.160;2024-03-22T11:54:35;11.40;99.90
11922;DHT22;6021;51.182;3.160;2024-03-22T11:57:03;11.60;99.90
11922;DHT22;6021;51.182;3.160;2024-03-22T11:59:32;11.40;99.90
11922;DHT22;6021;51.182;3.160;2024-03-22T12:02:00;11.40;99.90
11922;DHT22;6021;51.182;3.160;2024-03-22T12:04:30;11.40;99.90
11922;DHT22;6021;51.182;3.160;2024-03-22T12:06:59;11.40;99.90
11922;DHT22;6021;51.182;3.160;2024-03-22T12:09:28;11.40;99.90
11922;DHT22;6021;51.182;3.160;2024-03-22T12:11:56;11.80;99.90
11922;DHT22;6021;51.182;3.160;2024-03-22T12:14:24;11.70;99.90
11922;DHT22;6021;51.182;3.160;2024-03-22T12:16:54;11.60;99.90
11922;DHT22;6021;51.182;3.160;2024-03-22T12:19:22;11.60;99.90
11922;DHT22;6021;51.182;3.160;2024-03-22T12:21:51;11.70;99.90
11922;DHT22;6021;51.182;3.160;2024-03-22T12:24:21;12.00;99.90
11922;DHT22;6021;51.182;3.160;2024-03-22T12:26:51;11.90;99.90
11922;DHT22;6021;51.182;3.160;2024-03-22T12:29:21;11.50;99.90
11922;DHT22;6021;51.182;3.160;2024-03-22T12:31:49;11.50;99.90
11922;DHT22;6021;51.182;3.160;2024-03-22T12:34:18;11.60;99.90
11922;DHT22;6021;51.182;3.160;2024-03-22T12:36:46;11.40;99.90
11922;DHT22;6021;51.182;3.160;2024-03-22T12:39:15;11.60;99.90
11922;DHT22;6021;51.182;3.160;2024-03-22T12:41:44;11.70;99.90
11922;DHT22;6021;51.182;3.160;2024-03-22T12:44:12;11.60;99.90
11922;DHT22;6021;51.182;3.160;2024-03-22T12:46:40;11.60;99.90
11922;DHT22;6021;51.182;3.160;2024-03-22T12:49:11;12.00;99.90
11922;DHT22;6021;51.182;3.160;2024-03-22T12:51:40;11.90;99.90
11922;DHT22;6021;51.182;3.160;2024-03-22T12:54:09;11.70;99.90
11922;DHT22;6021;51.182;3.160;2024-03-22T12:56:37;11.70;99.90
11922;DHT22;6021;51.182;3.160;2024-03-22T12:59:06;11.60;99.90
11922;DHT22;6021;51.182;3.160;2024-03-22T13:01:35;11.50;99.90
11922;DHT22;6021;51.182;3.160;2024-03-22T13:04:07;11.50;99.90
11922;DHT22;6021;51.182;3.160;2024-03-22T13:06:36;11.40;99.90
11922;DHT22;6021;51.182;3.160;2024-03-22T13:09:04;11.30;99.90
11922;DHT22;6021;51.182;3.160;2024-03-22T13:11:33;11.40;99.90
11922;DHT22;6021;51.182;3.160;2024-03-22T13:14:01;11.50;99.90
11922;DHT22;6021;51.182;3.160;2024-03-22T13:16:30;11.40;99.90
11922;DHT22;6021;51.182;3.160;2024-03-22T13:19:00;11.70;99.90
11922;DHT22;6021;51.182;3.160;2024-03-22T13:21:28;11.50;99.90
11922;DHT22;6021;51.182;3.160;2024-03-22T13:23:58;11.60;99.90
11922;DHT22;6021;51.182;3.160;2024-03-22T13:26:26;11.60;99.90
11922;DHT22;6021;51.182;3.160;2024-03-22T13:28:55;11.50;99.90
11922;DHT22;6021;51.182;3.160;2024-03-22T13:31:26;11.30;99.90
11922;DHT22;6021;51.182;3.160;2024-03-22T13:33:55;11.20;99.90
11922;DHT22;6021;51.182;3.160;2024-03-22T13:36:30;11.10;99.90
11922;DHT22;6021;51.182;3.160;2024-03-22T13:39:05;11.10;99.90
11922;DHT22;6021;51.182;3.160;2024-03-22T13:41:41;11.20;99.90
11922;DHT22;6021;51.182;3.160;2024-03-22T13:44:05;11.30;99.90
11922;DHT22;6021;51.182;3.160;2024-03-22T13:46:35;11.30;99.90
11922;DHT22;6021;51.182;3.160;2024-03-22T13:49:04;11.60;99.90
11922;DHT22;6021;51.182;3.160;2024-03-22T13:51:32;11.30;99.90
11922;DHT22;6021;51.182;3.160;2024-03-22T13:54:01;11.30;99.90
11922;DHT22;6021;51.182;3.160;2024-03-22T13:56:30;11.40;99.90
11922;DHT22;6021;51.182;3.160;2024-03-22T13:58:59;11.50;99.90
11922;DHT22;6021;51.182;3.160;2024-03-22T14:01:29;11.60;99.90
11922;DHT22;6021;51.182;3.160;2024-03-22T14:03:57;11.50;99.90
11922;DHT22;6021;51.182;3.160;2024-03-22T14:06:26;11.60;99.90
11922;DHT22;6021;51.182;3.160;2024-03-22T14:08:54;11.70;99.90
11922;DHT22;6021;51.182;3.160;2024-03-22T14:11:24;11.60;99.90
11922;DHT22;6021;51.182;3.160;2024-03-22T14:13:52;11.50;99.90
11922;DHT22;6021;51.182;3.160;2024-03-22T14:16:21;11.70;99.90
11922;DHT22;6021;51.182;3.160;2024-03-22T14:18:49;11.60;99.90
11922;DHT22;6021;51.182;3.160;2024-03-22T14:21:18;11.50;99.90
11922;DHT22;6021;51.182;3.160;2024-03-22T14:23:49;11.60;99.90
11922;DHT22;6021;51.182;3.160;2024-03-22T14:26:18;11.30;99.90
11922;DHT22;6021;51.182;3.160;2024-03-22T14:28:46;11.50;99.90
11922;DHT22;6021;51.182;3.160;2024-03-22T14:31:15;11.40;99.90
11922;DHT22;6021;51.182;3.160;2024-03-22T14:33:43;11.60;99.90
11922;DHT22;6021;51.182;3.160;2024-03-22T14:36:12;11.30;99.90
11922;DHT22;6021;51.182;3.160;2024-03-22T14:38:40;11.30;99.90
11922;DHT22;6021;51.182;3.160;2024-03-22T14:41:09;11.40;99.90
11922;DHT22;6021;51.182;3.160;2024-03-22T14:43:37;11.40;99.90
11922;DHT22;6021;51.182;3.160;2024-03-22T14:46:06;11.30;99.90
11922;DHT22;6021;51.182;3.160;2024-03-22T14:48:40;11.50;99.90
11922;DHT22;6021;51.182;3.160;2024-03-22T14:51:07;11.60;99.90
11922;DHT22;6021;51.182;3.160;2024-03-22T14:53:36;11.40;99.90
11922;DHT22;6021;51.182;3.160;2024-03-22T14:56:05;11.60;99.90
11922;DHT22;6021;51.182;3.160;2024-03-22T14:58:40;11.60;99.90
11922;DHT22;6021;51.182;3.160;2024-03-22T15:01:10;11.50;99.90
11922;DHT22;6021;51.182;3.160;2024-03-22T15:03:38;11.10;99.90
11922;DHT22;6021;51.182;3.160;2024-03-22T15:06:07;11.20;99.90
11922;DHT22;6021;51.182;3.160;2024-03-22T15:08:36;11.30;99.90
11922;DHT22;6021;51.182;3.160;2024-03-22T15:11:04;11.20;99.90
11922;DHT22;6021;51.182;3.160;2024-03-22T15:13:32;11.30;99.90
11922;DHT22;6021;51.182;3.160;2024-03-22T15:16:01;11.10;99.90
11922;DHT22;6021;51.182;3.160;2024-03-22T15:18:30;11.00;99.90
11922;DHT22;6021;51.182;3.160;2024-03-22T15:20:59;11.20;99.90
11922;DHT22;6021;51.182;3.160;2024-03-22T15:23:27;11.10;99.90
11922;DHT22;6021;51.182;3.160;2024-03-22T15:25:55;10.90;99.90
11922;DHT22;6021;51.182;3.160;2024-03-22T15:28:24;10.90;99.90
11922;DHT22;6021;51.182;3.160;2024-03-22T15:30:52;10.90;99.90
11922;DHT22;6021;51.182;3.160;2024-03-22T15:33:21;10.80;99.90
11922;DHT22;6021;51.182;3.160;2024-03-22T15:35:49;10.80;99.90
11922;DHT22;6021;51.182;3.160;2024-03-22T15:38:18;10.90;99.90
11922;DHT22;6021;51.182;3.160;2024-03-22T15:40:53;11.20;99.90
11922;DHT22;6021;51.182;3.160;2024-03-22T15:43:21;10.80;99.90
11922;DHT22;6021;51.182;3.160;2024-03-22T15:45:51;10.80;99.90
11922;DHT22;6021;51.182;3.160;2024-03-22T15:48:20;10.70;99.90
11922;DHT22;6021;51.182;3.160;2024-03-22T15:50:49;10.90;99.90
11922;DHT22;6021;51.182;3.160;2024-03-22T15:53:23;10.70;99.90
11922;DHT22;6021;51.182;3.160;2024-03-22T15:55:52;10.60;99.90
11922;DHT22;6021;51.182;3.160;2024-03-22T15:58:24;10.60;99.90
11922;DHT22;6021;51.182;3.160;2024-03-22T16:00:55;10.80;99.90